sensor_id;sensor_type;location;lat;lon;timestamp;P1;durP1;ratioP1;P2;durP2;ratioP2
4577;SDS011;2301;47.354;8.528;2023-07-13T00:01:39;2.53;;;1.80;;
4577;SDS011;2301;47.354;8.528;2023-07-13T00:04:07;3.37;;;2.10;;
4577;SDS011;2301;47.354;8.528;2023-07-13T00:06:34;4.10;;;1.80;;
4577;SDS011;2301;47.354;8.528;2023-07-13T00:09:01;2.93;;;1.90;;
4577;SDS011;2301;47.354;8.528;2023-07-13T00:11:29;3.60;;;2.10;;
4577;SDS011;2301;47.354;8.528;2023-07-13T00:13:55;2.90;;;2.20;;
4577;SDS011;2301;47.354;8.528;2023-07-13T00:16:22;4.43;;;2.10;;
4577;SDS011;2301;47.354;8.528;2023-07-13T00:18:51;3.40;;;2.47;;
4577;SDS011;2301;47.354;8.528;2023-07-13T00:21:18;4.07;;;2.10;;
4577;SDS011;2301;47.354;8.528;2023-07-13T00:23:45;2.53;;;1.93;;
4577;SDS011;2301;47.354;8.528;2023-07-13T00:26:12;2.73;;;2.10;;
4577;SDS011;2301;47.354;8.528;2023-07-13T00:28:39;4.43;;;2.30;;
4577;SDS011;2301;47.354;8.528;2023-07-13T00:31:07;3.80;;;2.23;;
4577;SDS011;2301;47.354;8.528;2023-07-13T00:33:34;3.47;;;1.77;;
4577;SDS011;2301;47.354;8.528;2023-07-13T00:36:04;2.97;;;2.10;;
4577;SDS011;2301;47.354;8.528;2023-07-13T00:38:31;4.70;;;1.93;;
4577;SDS011;2301;47.354;8.528;2023-07-13T00:40:58;4.20;;;2.50;;
4577;SDS011;2301;47.354;8.528;2023-07-13T00:43:25;2.87;;;2.07;;
4577;SDS011;2301;47.354;8.528;2023-07-13T00:46:10;3.70;;;2.20;;
4577;SDS011;2301;47.354;8.528;2023-07-13T00:48:55;6.70;;;2.60;;
4577;SDS011;2301;47.354;8.528;2023-07-13T00:51:27;7.97;;;2.20;;
4577;SDS011;2301;47.354;8.528;2023-07-13T00:53:59;9.30;;;2.57;;
4577;SDS011;2301;47.354;8.528;2023-07-13T00:56:29;3.67;;;2.10;;
4577;SDS011;2301;47.354;8.528;2023-07-13T00:58:57;3.17;;;2.07;;
4577;SDS011;2301;47.354;8.528;2023-07-13T01:01:26;3.87;;;2.00;;
4577;SDS011;2301;47.354;8.528;2023-07-13T01:03:53;4.80;;;2.17;;
4577;SDS011;2301;47.354;8.528;2023-07-13T01:06:22;3.60;;;2.17;;
4577;SDS011;2301;47.354;8.528;2023-07-13T01:08:50;3.30;;;2.40;;
4577;SDS011;2301;47.354;8.528;2023-07-13T01:11:20;3.13;;;1.97;;
4577;SDS011;2301;47.354;8.528;2023-07-13T01:13:48;8.23;;;2.07;;
4577;SDS011;2301;47.354;8.528;2023-07-13T01:16:17;5.90;;;1.97;;
4577;SDS011;2301;47.354;8.528;2023-07-13T01:18:48;3.10;;;1.70;;
4577;SDS011;2301;47.354;8.528;2023-07-13T01:21:16;5.20;;;2.73;;
4577;SDS011;2301;47.354;8.528;2023-07-13T01:23:44;2.50;;;1.80;;
4577;SDS011;2301;47.354;8.528;2023-07-13T01:26:11;4.73;;;1.97;;
4577;SDS011;2301;47.354;8.528;2023-07-13T01:28:38;3.80;;;1.97;;
4577;SDS011;2301;47.354;8.528;2023-07-13T01:31:05;4.70;;;2.10;;
4577;SDS011;2301;47.354;8.528;2023-07-13T01:33:33;3.93;;;2.10;;
4577;SDS011;2301;47.354;8.528;2023-07-13T01:36:00;4.20;;;2.33;;
4577;SDS011;2301;47.354;8.528;2023-07-13T01:38:29;4.57;;;2.07;;
4577;SDS011;2301;47.354;8.528;2023-07-13T01:40:56;2.30;;;1.70;;
4577;SDS011;2301;47.354;8.528;2023-07-13T01:43:22;2.87;;;2.07;;
4577;SDS011;2301;47.354;8.528;2023-07-13T01:45:49;3.87;;;2.20;;
4577;SDS011;2301;47.354;8.528;2023-07-13T01:48:16;3.80;;;2.00;;
4577;SDS011;2301;47.354;8.528;2023-07-13T01:50:44;3.60;;;2.10;;
4577;SDS011;2301;47.354;8.528;2023-07-13T01:53:11;5.33;;;2.17;;
4577;SDS011;2301;47.354;8.528;2023-07-13T01:55:39;2.77;;;1.83;;
4577;SDS011;2301;47.354;8.528;2023-07-13T01:58:07;5.63;;;2.17;;
4577;SDS011;2301;47.354;8.528;2023-07-13T02:00:34;3.03;;;1.77;;
4577;SDS011;2301;47.354;8.528;2023-07-13T02:03:01;4.67;;;2.07;;
4577;SDS011;2301;47.354;8.528;2023-07-13T02:05:28;4.50;;;2.10;;
4577;SDS011;2301;47.354;8.528;2023-07-13T02:07:55;2.90;;;1.70;;
4577;SDS011;2301;47.354;8.528;2023-07-13T02:10:22;6.90;;;1.90;;
4577;SDS011;2301;47.354;8.528;2023-07-13T02:12:50;2.50;;;1.73;;
4577;SDS011;2301;47.354;8.528;2023-07-13T02:15:17;2.87;;;1.90;;
4577;SDS011;2301;47.354;8.528;2023-07-13T02:17:44;2.93;;;1.93;;
4577;SDS011;2301;47.354;8.528;2023-07-13T02:20:11;3.13;;;1.77;;
4577;SDS011;2301;47.354;8.528;2023-07-13T02:22:38;2.57;;;1.70;;
4577;SDS011;2301;47.354;8.528;2023-07-13T02:25:05;2.60;;;1.53;;
4577;SDS011;2301;47.354;8.528;2023-07-13T02:27:32;2.70;;;1.83;;
4577;SDS011;2301;47.354;8.528;2023-07-13T02:30:00;2.90;;;1.90;;
4577;SDS011;2301;47.354;8.528;2023-07-13T02:32:28;2.70;;;1.70;;
4577;SDS011;2301;47.354;8.528;2023-07-13T02:34:55;2.87;;;1.60;;
4577;SDS011;2301;47.354;8.528;2023-07-13T02:37:21;2.67;;;1.90;;
4577;SDS011;2301;47.354;8.528;2023-07-13T02:39:48;2.70;;;1.90;;
4577;SDS011;2301;47.354;8.528;2023-07-13T02:42:15;5.70;;;1.83;;
4577;SDS011;2301;47.354;8.528;2023-07-13T02:44:42;3.23;;;1.87;;
4577;SDS011;2301;47.354;8.528;2023-07-13T02:47:10;2.50;;;1.70;;
4577;SDS011;2301;47.354;8.528;2023-07-13T02:49:38;7.70;;;1.87;;
4577;SDS011;2301;47.354;8.528;2023-07-13T02:52:05;3.33;;;2.07;;
4577;SDS011;2301;47.354;8.528;2023-07-13T02:54:32;3.67;;;2.23;;
4577;SDS011;2301;47.354;8.528;2023-07-13T02:56:59;3.90;;;1.70;;
4577;SDS011;2301;47.354;8.528;2023-07-13T02:59:26;2.70;;;1.70;;
4577;SDS011;2301;47.354;8.528;2023-07-13T03:01:53;2.50;;;1.80;;
4577;SDS011;2301;47.354;8.528;2023-07-13T03:04:22;2.87;;;1.93;;
4577;SDS011;2301;47.354;8.528;2023-07-13T03:06:49;3.10;;;2.00;;
4577;SDS011;2301;47.354;8.528;2023-07-13T03:09:16;2.53;;;1.87;;
4577;SDS011;2301;47.354;8.528;2023-07-13T03:11:44;4.03;;;2.00;;
4577;SDS011;2301;47.354;8.528;2023-07-13T03:14:11;5.87;;;2.03;;
4577;SDS011;2301;47.354;8.528;2023-07-13T03:16:38;2.90;;;2.00;;
4577;SDS011;2301;47.354;8.528;2023-07-13T03:19:05;4.23;;;2.20;;
4577;SDS011;2301;47.354;8.528;2023-07-13T03:21:34;3.20;;;1.80;;
4577;SDS011;2301;47.354;8.528;2023-07-13T03:24:01;8.17;;;2.30;;
4577;SDS011;2301;47.354;8.528;2023-07-13T03:26:28;5.30;;;2.00;;
4577;SDS011;2301;47.354;8.528;2023-07-13T03:28:55;2.70;;;1.67;;
4577;SDS011;2301;47.354;8.528;2023-07-13T03:31:27;3.30;;;1.87;;
4577;SDS011;2301;47.354;8.528;2023-07-13T03:33:55;2.20;;;1.40;;
4577;SDS011;2301;47.354;8.528;2023-07-13T03:36:24;4.80;;;2.20;;
4577;SDS011;2301;47.354;8.528;2023-07-13T03:38:54;3.33;;;2.00;;
4577;SDS011;2301;47.354;8.528;2023-07-13T03:41:23;4.87;;;1.90;;
4577;SDS011;2301;47.354;8.528;2023-07-13T03:43:51;2.70;;;1.70;;
4577;SDS011;2301;47.354;8.528;2023-07-13T03:46:18;3.27;;;2.10;;
4577;SDS011;2301;47.354;8.528;2023-07-13T03:48:46;5.07;;;1.90;;
4577;SDS011;2301;47.354;8.528;2023-07-13T03:51:15;3.30;;;2.00;;
4577;SDS011;2301;47.354;8.528;2023-07-13T03:53:43;3.10;;;1.90;;
4577;SDS011;2301;47.354;8.528;2023-07-13T03:56:13;2.73;;;2.00;;
4577;SDS011;2301;47.354;8.528;2023-07-13T03:58:41;3.83;;;1.70;;
4577;SDS011;2301;47.354;8.528;2023-07-13T04:01:10;4.10;;;1.90;;
4577;SDS011;2301;47.354;8.528;2023-07-13T04:03:38;7.80;;;2.03;;
4577;SDS011;2301;47.354;8.528;2023-07-13T04:06:06;3.30;;;2.10;;
4577;SDS011;2301;47.354;8.528;2023-07-13T04:08:40;3.50;;;1.90;;
4577;SDS011;2301;47.354;8.528;2023-07-13T04:11:07;5.20;;;2.07;;
4577;SDS011;2301;47.354;8.528;2023-07-13T04:13:36;3.10;;;1.97;;
4577;SDS011;2301;47.354;8.528;2023-07-13T04:16:03;4.00;;;2.10;;
4577;SDS011;2301;47.354;8.528;2023-07-13T04:18:30;3.70;;;1.80;;
4577;SDS011;2301;47.354;8.528;2023-07-13T04:20:57;2.97;;;1.83;;
4577;SDS011;2301;47.354;8.528;2023-07-13T04:23:24;3.30;;;1.77;;
4577;SDS011;2301;47.354;8.528;2023-07-13T04:25:52;2.57;;;1.77;;
4577;SDS011;2301;47.354;8.528;2023-07-13T04:28:21;7.40;;;1.80;;
4577;SDS011;2301;47.354;8.528;2023-07-13T04:30:50;2.80;;;1.77;;
4577;SDS011;2301;47.354;8.528;2023-07-13T04:33:17;3.20;;;1.80;;
4577;SDS011;2301;47.354;8.528;2023-07-13T04:35:47;4.10;;;2.10;;
4577;SDS011;2301;47.354;8.528;2023-07-13T04:38:14;3.60;;;1.80;;
4577;SDS011;2301;47.354;8.528;2023-07-13T04:40:42;5.23;;;2.10;;
4577;SDS011;2301;47.354;8.528;2023-07-13T04:43:10;3.20;;;1.83;;
4577;SDS011;2301;47.354;8.528;2023-07-13T04:45:37;3.63;;;1.97;;
4577;SDS011;2301;47.354;8.528;2023-07-13T04:48:06;4.80;;;2.20;;
4577;SDS011;2301;47.354;8.528;2023-07-13T04:50:35;2.60;;;1.90;;
4577;SDS011;2301;47.354;8.528;2023-07-13T04:53:03;2.60;;;1.90;;
4577;SDS011;2301;47.354;8.528;2023-07-13T04:55:30;3.00;;;1.70;;
4577;SDS011;2301;47.354;8.528;2023-07-13T04:57:57;3.63;;;2.00;;
4577;SDS011;2301;47.354;8.528;2023-07-13T05:00:25;2.50;;;1.67;;
4577;SDS011;2301;47.354;8.528;2023-07-13T05:02:53;3.90;;;1.80;;
4577;SDS011;2301;47.354;8.528;2023-07-13T05:05:22;3.80;;;1.77;;
4577;SDS011;2301;47.354;8.528;2023-07-13T05:07:49;3.60;;;1.93;;
4577;SDS011;2301;47.354;8.528;2023-07-13T05:10:16;9.07;;;1.87;;
4577;SDS011;2301;47.354;8.528;2023-07-13T05:12:43;3.50;;;2.20;;
4577;SDS011;2301;47.354;8.528;2023-07-13T05:15:10;4.23;;;1.97;;
4577;SDS011;2301;47.354;8.528;2023-07-13T05:17:38;3.03;;;1.70;;
4577;SDS011;2301;47.354;8.528;2023-07-13T05:20:05;3.83;;;2.03;;
4577;SDS011;2301;47.354;8.528;2023-07-13T05:22:34;5.80;;;2.00;;
4577;SDS011;2301;47.354;8.528;2023-07-13T05:25:03;3.43;;;1.60;;
4577;SDS011;2301;47.354;8.528;2023-07-13T05:27:31;3.00;;;1.90;;
4577;SDS011;2301;47.354;8.528;2023-07-13T05:29:58;4.40;;;2.17;;
4577;SDS011;2301;47.354;8.528;2023-07-13T05:32:25;3.43;;;1.90;;
4577;SDS011;2301;47.354;8.528;2023-07-13T05:34:52;3.80;;;2.10;;
4577;SDS011;2301;47.354;8.528;2023-07-13T05:37:19;4.90;;;1.90;;
4577;SDS011;2301;47.354;8.528;2023-07-13T05:39:48;6.77;;;2.10;;
4577;SDS011;2301;47.354;8.528;2023-07-13T05:42:15;4.87;;;2.23;;
4577;SDS011;2301;47.354;8.528;2023-07-13T05:44:42;3.70;;;2.00;;
4577;SDS011;2301;47.354;8.528;2023-07-13T05:47:09;5.20;;;1.90;;
4577;SDS011;2301;47.354;8.528;2023-07-13T05:49:36;3.20;;;1.80;;
4577;SDS011;2301;47.354;8.528;2023-07-13T05:52:03;5.20;;;2.20;;
4577;SDS011;2301;47.354;8.528;2023-07-13T05:54:31;5.03;;;2.40;;
4577;SDS011;2301;47.354;8.528;2023-07-13T05:56:59;5.00;;;1.83;;
4577;SDS011;2301;47.354;8.528;2023-07-13T05:59:26;2.70;;;1.73;;
4577;SDS011;2301;47.354;8.528;2023-07-13T06:01:53;3.57;;;2.07;;
4577;SDS011;2301;47.354;8.528;2023-07-13T06:04:20;3.17;;;1.90;;
4577;SDS011;2301;47.354;8.528;2023-07-13T06:06:47;3.43;;;2.00;;
4577;SDS011;2301;47.354;8.528;2023-07-13T06:09:14;5.30;;;1.90;;
4577;SDS011;2301;47.354;8.528;2023-07-13T06:11:41;3.70;;;1.87;;
4577;SDS011;2301;47.354;8.528;2023-07-13T06:14:10;3.03;;;1.50;;
4577;SDS011;2301;47.354;8.528;2023-07-13T06:16:37;2.87;;;1.70;;
4577;SDS011;2301;47.354;8.528;2023-07-13T06:19:03;2.80;;;1.67;;
4577;SDS011;2301;47.354;8.528;2023-07-13T06:21:31;4.10;;;1.80;;
4577;SDS011;2301;47.354;8.528;2023-07-13T06:23:58;2.50;;;1.70;;
4577;SDS011;2301;47.354;8.528;2023-07-13T06:26:25;4.13;;;1.77;;
4577;SDS011;2301;47.354;8.528;2023-07-13T06:28:53;3.33;;;1.90;;
4577;SDS011;2301;47.354;8.528;2023-07-13T06:31:21;3.30;;;1.67;;
4577;SDS011;2301;47.354;8.528;2023-07-13T06:33:48;3.30;;;1.93;;
4577;SDS011;2301;47.354;8.528;2023-07-13T06:36:15;2.50;;;1.60;;
4577;SDS011;2301;47.354;8.528;2023-07-13T06:38:42;3.17;;;1.73;;
4577;SDS011;2301;47.354;8.528;2023-07-13T06:41:11;2.60;;;1.60;;
4577;SDS011;2301;47.354;8.528;2023-07-13T06:43:38;3.33;;;1.80;;
4577;SDS011;2301;47.354;8.528;2023-07-13T06:46:05;5.80;;;2.00;;
4577;SDS011;2301;47.354;8.528;2023-07-13T06:48:34;3.03;;;1.80;;
4577;SDS011;2301;47.354;8.528;2023-07-13T06:51:01;3.20;;;1.80;;
4577;SDS011;2301;47.354;8.528;2023-07-13T06:53:29;4.13;;;1.80;;
4577;SDS011;2301;47.354;8.528;2023-07-13T06:55:56;2.17;;;1.50;;
4577;SDS011;2301;47.354;8.528;2023-07-13T06:58:23;2.90;;;1.83;;
4577;SDS011;2301;47.354;8.528;2023-07-13T07:00:50;2.40;;;1.50;;
4577;SDS011;2301;47.354;8.528;2023-07-13T07:03:18;5.93;;;2.10;;
4577;SDS011;2301;47.354;8.528;2023-07-13T07:05:47;3.70;;;1.93;;
4577;SDS011;2301;47.354;8.528;2023-07-13T07:08:14;3.10;;;1.60;;
4577;SDS011;2301;47.354;8.528;2023-07-13T07:10:41;2.40;;;1.50;;
4577;SDS011;2301;47.354;8.528;2023-07-13T07:13:08;3.10;;;1.60;;
4577;SDS011;2301;47.354;8.528;2023-07-13T07:15:35;2.83;;;1.77;;
4577;SDS011;2301;47.354;8.528;2023-07-13T07:18:02;3.33;;;1.47;;
4577;SDS011;2301;47.354;8.528;2023-07-13T07:20:29;3.17;;;1.90;;
4577;SDS011;2301;47.354;8.528;2023-07-13T07:22:59;4.00;;;1.73;;
4577;SDS011;2301;47.354;8.528;2023-07-13T07:25:26;2.70;;;1.60;;
4577;SDS011;2301;47.354;8.528;2023-07-13T07:27:56;2.53;;;1.73;;
4577;SDS011;2301;47.354;8.528;2023-07-13T07:30:23;2.87;;;1.80;;
4577;SDS011;2301;47.354;8.528;2023-07-13T07:32:50;2.43;;;1.60;;
4577;SDS011;2301;47.354;8.528;2023-07-13T07:35:17;2.40;;;1.60;;
4577;SDS011;2301;47.354;8.528;2023-07-13T07:37:44;2.77;;;2.00;;
4577;SDS011;2301;47.354;8.528;2023-07-13T07:40:12;2.87;;;1.70;;
4577;SDS011;2301;47.354;8.528;2023-07-13T07:42:39;2.50;;;1.80;;
4577;SDS011;2301;47.354;8.528;2023-07-13T07:45:06;3.73;;;1.53;;
4577;SDS011;2301;47.354;8.528;2023-07-13T07:47:36;3.07;;;1.63;;
4577;SDS011;2301;47.354;8.528;2023-07-13T07:50:03;3.90;;;1.50;;
4577;SDS011;2301;47.354;8.528;2023-07-13T07:52:31;3.00;;;1.50;;
4577;SDS011;2301;47.354;8.528;2023-07-13T07:54:57;2.37;;;1.73;;
4577;SDS011;2301;47.354;8.528;2023-07-13T07:57:26;4.57;;;1.97;;
4577;SDS011;2301;47.354;8.528;2023-07-13T07:59:53;3.27;;;1.77;;
4577;SDS011;2301;47.354;8.528;2023-07-13T08:02:20;3.43;;;1.80;;
4577;SDS011;2301;47.354;8.528;2023-07-13T08:04:46;7.20;;;2.07;;
4577;SDS011;2301;47.354;8.528;2023-07-13T08:07:13;3.20;;;1.70;;
4577;SDS011;2301;47.354;8.528;2023-07-13T08:09:41;2.97;;;1.80;;
4577;SDS011;2301;47.354;8.528;2023-07-13T08:12:08;4.53;;;1.67;;
4577;SDS011;2301;47.354;8.528;2023-07-13T08:14:36;2.63;;;1.53;;
4577;SDS011;2301;47.354;8.528;2023-07-13T08:17:03;2.93;;;1.50;;
4577;SDS011;2301;47.354;8.528;2023-07-13T08:19:30;2.80;;;1.53;;
4577;SDS011;2301;47.354;8.528;2023-07-13T08:21:57;2.40;;;1.50;;
4577;SDS011;2301;47.354;8.528;2023-07-13T08:24:24;3.10;;;1.80;;
4577;SDS011;2301;47.354;8.528;2023-07-13T08:26:51;3.17;;;1.83;;
4577;SDS011;2301;47.354;8.528;2023-07-13T08:29:18;2.00;;;1.20;;
4577;SDS011;2301;47.354;8.528;2023-07-13T08:31:46;1.90;;;1.30;;
4577;SDS011;2301;47.354;8.528;2023-07-13T08:34:13;2.20;;;1.30;;
4577;SDS011;2301;47.354;8.528;2023-07-13T08:36:41;2.40;;;1.50;;
4577;SDS011;2301;47.354;8.528;2023-07-13T08:39:08;2.20;;;1.37;;
4577;SDS011;2301;47.354;8.528;2023-07-13T08:41:35;2.63;;;1.30;;
4577;SDS011;2301;47.354;8.528;2023-07-13T08:44:03;2.00;;;1.30;;
4577;SDS011;2301;47.354;8.528;2023-07-13T08:46:35;2.80;;;1.40;;
4577;SDS011;2301;47.354;8.528;2023-07-13T08:49:17;1.93;;;1.27;;
4577;SDS011;2301;47.354;8.528;2023-07-13T08:51:49;2.40;;;1.40;;
4577;SDS011;2301;47.354;8.528;2023-07-13T08:54:22;1.97;;;1.40;;
4577;SDS011;2301;47.354;8.528;2023-07-13T08:56:54;2.17;;;1.40;;
4577;SDS011;2301;47.354;8.528;2023-07-13T08:59:24;2.43;;;1.50;;
4577;SDS011;2301;47.354;8.528;2023-07-13T09:02:00;3.60;;;1.60;;
4577;SDS011;2301;47.354;8.528;2023-07-13T09:04:35;2.30;;;1.20;;
4577;SDS011;2301;47.354;8.528;2023-07-13T09:07:11;2.73;;;1.70;;
4577;SDS011;2301;47.354;8.528;2023-07-13T09:09:50;2.40;;;1.50;;
4577;SDS011;2301;47.354;8.528;2023-07-13T09:12:25;2.10;;;1.60;;
4577;SDS011;2301;47.354;8.528;2023-07-13T09:15:14;2.30;;;1.30;;
4577;SDS011;2301;47.354;8.528;2023-07-13T09:17:48;3.63;;;1.30;;
4577;SDS011;2301;47.354;8.528;2023-07-13T09:20:19;2.20;;;1.30;;
4577;SDS011;2301;47.354;8.528;2023-07-13T09:22:51;2.73;;;1.40;;
4577;SDS011;2301;47.354;8.528;2023-07-13T09:25:23;2.43;;;1.40;;
4577;SDS011;2301;47.354;8.528;2023-07-13T09:27:55;2.30;;;1.40;;
4577;SDS011;2301;47.354;8.528;2023-07-13T09:30:29;2.10;;;1.40;;
4577;SDS011;2301;47.354;8.528;2023-07-13T09:33:00;2.20;;;1.30;;
4577;SDS011;2301;47.354;8.528;2023-07-13T09:35:28;2.83;;;1.40;;
4577;SDS011;2301;47.354;8.528;2023-07-13T09:37:59;2.47;;;1.50;;
4577;SDS011;2301;47.354;8.528;2023-07-13T09:40:39;2.30;;;1.40;;
4577;SDS011;2301;47.354;8.528;2023-07-13T09:43:11;2.30;;;1.33;;
4577;SDS011;2301;47.354;8.528;2023-07-13T09:45:41;3.93;;;1.60;;
4577;SDS011;2301;47.354;8.528;2023-07-13T09:48:14;1.90;;;1.50;;
4577;SDS011;2301;47.354;8.528;2023-07-13T09:50:44;2.87;;;1.67;;
4577;SDS011;2301;47.354;8.528;2023-07-13T09:53:12;2.53;;;1.53;;
4577;SDS011;2301;47.354;8.528;2023-07-13T09:55:40;2.77;;;1.40;;
4577;SDS011;2301;47.354;8.528;2023-07-13T09:58:10;3.27;;;1.53;;
4577;SDS011;2301;47.354;8.528;2023-07-13T10:00:40;5.00;;;1.90;;
4577;SDS011;2301;47.354;8.528;2023-07-13T10:03:17;3.70;;;1.50;;
4577;SDS011;2301;47.354;8.528;2023-07-13T10:05:49;3.30;;;1.60;;
4577;SDS011;2301;47.354;8.528;2023-07-13T10:08:18;2.63;;;1.60;;
4577;SDS011;2301;47.354;8.528;2023-07-13T10:10:52;3.50;;;1.60;;
4577;SDS011;2301;47.354;8.528;2023-07-13T10:13:27;2.63;;;1.50;;
4577;SDS011;2301;47.354;8.528;2023-07-13T10:15:57;2.00;;;1.50;;
4577;SDS011;2301;47.354;8.528;2023-07-13T10:18:25;4.13;;;1.63;;
4577;SDS011;2301;47.354;8.528;2023-07-13T10:21:00;2.30;;;1.70;;
4577;SDS011;2301;47.354;8.528;2023-07-13T10:23:40;2.33;;;1.67;;
4577;SDS011;2301;47.354;8.528;2023-07-13T10:26:12;7.30;;;1.70;;
4577;SDS011;2301;47.354;8.528;2023-07-13T10:28:43;5.63;;;1.70;;
4577;SDS011;2301;47.354;8.528;2023-07-13T10:31:14;2.30;;;1.60;;
4577;SDS011;2301;47.354;8.528;2023-07-13T10:33:42;2.60;;;1.73;;
4577;SDS011;2301;47.354;8.528;2023-07-13T10:36:13;2.37;;;1.43;;
4577;SDS011;2301;47.354;8.528;2023-07-13T10:38:47;5.83;;;1.70;;
4577;SDS011;2301;47.354;8.528;2023-07-13T10:41:18;9.83;;;1.70;;
4577;SDS011;2301;47.354;8.528;2023-07-13T10:43:47;2.10;;;1.50;;
4577;SDS011;2301;47.354;8.528;2023-07-13T10:46:19;4.53;;;1.30;;
4577;SDS011;2301;47.354;8.528;2023-07-13T10:48:49;2.93;;;1.40;;
4577;SDS011;2301;47.354;8.528;2023-07-13T10:51:21;2.77;;;1.60;;
4577;SDS011;2301;47.354;8.528;2023-07-13T10:56:38;2.20;;;1.37;;
4577;SDS011;2301;47.354;8.528;2023-07-13T10:59:09;4.10;;;1.40;;
4577;SDS011;2301;47.354;8.528;2023-07-13T11:01:40;2.03;;;1.43;;
4577;SDS011;2301;47.354;8.528;2023-07-13T11:04:16;1.87;;;1.20;;
4577;SDS011;2301;47.354;8.528;2023-07-13T11:06:50;2.63;;;1.60;;
4577;SDS011;2301;47.354;8.528;2023-07-13T11:09:30;2.60;;;1.47;;
4577;SDS011;2301;47.354;8.528;2023-07-13T11:11:59;2.73;;;1.60;;
4577;SDS011;2301;47.354;8.528;2023-07-13T11:14:31;2.73;;;1.60;;
4577;SDS011;2301;47.354;8.528;2023-07-13T11:20:08;3.03;;;1.60;;
4577;SDS011;2301;47.354;8.528;2023-07-13T11:22:47;2.80;;;1.50;;
4577;SDS011;2301;47.354;8.528;2023-07-13T11:25:25;2.50;;;1.30;;
4577;SDS011;2301;47.354;8.528;2023-07-13T11:28:06;5.73;;;1.50;;
4577;SDS011;2301;47.354;8.528;2023-07-13T11:30:42;2.43;;;1.40;;
4577;SDS011;2301;47.354;8.528;2023-07-13T11:33:14;3.17;;;1.50;;
4577;SDS011;2301;47.354;8.528;2023-07-13T11:35:49;2.70;;;1.40;;
4577;SDS011;2301;47.354;8.528;2023-07-13T11:38:22;2.87;;;1.30;;
4577;SDS011;2301;47.354;8.528;2023-07-13T11:40:54;3.37;;;1.40;;
4577;SDS011;2301;47.354;8.528;2023-07-13T11:43:22;2.93;;;1.37;;
4577;SDS011;2301;47.354;8.528;2023-07-13T11:45:50;2.30;;;1.50;;
4577;SDS011;2301;47.354;8.528;2023-07-13T11:48:18;2.00;;;1.40;;
4577;SDS011;2301;47.354;8.528;2023-07-13T11:50:50;1.80;;;1.40;;
4577;SDS011;2301;47.354;8.528;2023-07-13T11:53:22;2.20;;;1.40;;
4577;SDS011;2301;47.354;8.528;2023-07-13T11:55:53;2.10;;;1.40;;
4577;SDS011;2301;47.354;8.528;2023-07-13T11:58:21;5.37;;;1.80;;
4577;SDS011;2301;47.354;8.528;2023-07-13T12:00:51;2.50;;;1.37;;
4577;SDS011;2301;47.354;8.528;2023-07-13T12:03:21;3.07;;;1.90;;
4577;SDS011;2301;47.354;8.528;2023-07-13T12:05:56;2.67;;;1.50;;
4577;SDS011;2301;47.354;8.528;2023-07-13T12:08:27;5.30;;;1.67;;
4577;SDS011;2301;47.354;8.528;2023-07-13T12:11:03;1.97;;;1.47;;
4577;SDS011;2301;47.354;8.528;2023-07-13T12:13:36;2.10;;;1.40;;
4577;SDS011;2301;47.354;8.528;2023-07-13T12:16:14;2.00;;;1.40;;
4577;SDS011;2301;47.354;8.528;2023-07-13T12:18:43;2.53;;;1.43;;
4577;SDS011;2301;47.354;8.528;2023-07-13T12:21:14;2.30;;;1.50;;
4577;SDS011;2301;47.354;8.528;2023-07-13T12:23:47;2.40;;;1.30;;
4577;SDS011;2301;47.354;8.528;2023-07-13T12:26:15;1.60;;;1.13;;
4577;SDS011;2301;47.354;8.528;2023-07-13T12:28:45;2.83;;;1.20;;
4577;SDS011;2301;47.354;8.528;2023-07-13T12:31:24;2.27;;;1.50;;
4577;SDS011;2301;47.354;8.528;2023-07-13T12:33:56;1.90;;;1.30;;
4577;SDS011;2301;47.354;8.528;2023-07-13T12:36:24;3.03;;;1.40;;
4577;SDS011;2301;47.354;8.528;2023-07-13T12:38:53;2.80;;;1.30;;
4577;SDS011;2301;47.354;8.528;2023-07-13T12:41:20;2.43;;;1.37;;
4577;SDS011;2301;47.354;8.528;2023-07-13T12:43:48;2.33;;;1.30;;
4577;SDS011;2301;47.354;8.528;2023-07-13T12:46:17;1.90;;;1.30;;
4577;SDS011;2301;47.354;8.528;2023-07-13T12:48:48;1.80;;;1.17;;
4577;SDS011;2301;47.354;8.528;2023-07-13T12:51:16;4.50;;;1.37;;
4577;SDS011;2301;47.354;8.528;2023-07-13T12:53:48;1.93;;;1.40;;
4577;SDS011;2301;47.354;8.528;2023-07-13T12:56:21;1.70;;;1.30;;
4577;SDS011;2301;47.354;8.528;2023-07-13T12:58:51;1.70;;;1.10;;
4577;SDS011;2301;47.354;8.528;2023-07-13T13:01:25;3.67;;;1.23;;
4577;SDS011;2301;47.354;8.528;2023-07-13T13:03:53;3.07;;;1.57;;
4577;SDS011;2301;47.354;8.528;2023-07-13T13:06:22;2.03;;;1.20;;
4577;SDS011;2301;47.354;8.528;2023-07-13T13:08:51;2.80;;;1.50;;
4577;SDS011;2301;47.354;8.528;2023-07-13T13:11:22;6.33;;;1.40;;
4577;SDS011;2301;47.354;8.528;2023-07-13T13:13:51;2.80;;;1.50;;
4577;SDS011;2301;47.354;8.528;2023-07-13T13:16:20;2.63;;;1.50;;
4577;SDS011;2301;47.354;8.528;2023-07-13T13:18:48;1.77;;;1.37;;
4577;SDS011;2301;47.354;8.528;2023-07-13T13:21:16;3.40;;;1.40;;
4577;SDS011;2301;47.354;8.528;2023-07-13T13:23:44;4.80;;;1.40;;
4577;SDS011;2301;47.354;8.528;2023-07-13T13:26:11;2.73;;;1.70;;
4577;SDS011;2301;47.354;8.528;2023-07-13T13:28:42;2.07;;;1.30;;
4577;SDS011;2301;47.354;8.528;2023-07-13T13:31:10;1.90;;;1.40;;
4577;SDS011;2301;47.354;8.528;2023-07-13T13:33:39;2.90;;;1.60;;
4577;SDS011;2301;47.354;8.528;2023-07-13T13:36:12;2.30;;;1.40;;
4577;SDS011;2301;47.354;8.528;2023-07-13T13:38:42;2.63;;;1.50;;
4577;SDS011;2301;47.354;8.528;2023-07-13T13:41:10;2.07;;;1.30;;
4577;SDS011;2301;47.354;8.528;2023-07-13T13:43:38;2.20;;;1.40;;
4577;SDS011;2301;47.354;8.528;2023-07-13T13:46:11;2.53;;;1.30;;
4577;SDS011;2301;47.354;8.528;2023-07-13T13:48:40;2.03;;;1.20;;
4577;SDS011;2301;47.354;8.528;2023-07-13T13:51:12;2.73;;;1.50;;
4577;SDS011;2301;47.354;8.528;2023-07-13T13:53:40;1.90;;;1.40;;
4577;SDS011;2301;47.354;8.528;2023-07-13T13:56:07;3.00;;;1.50;;
4577;SDS011;2301;47.354;8.528;2023-07-13T13:58:34;2.73;;;1.40;;
4577;SDS011;2301;47.354;8.528;2023-07-13T14:01:02;2.00;;;1.10;;
4577;SDS011;2301;47.354;8.528;2023-07-13T14:03:32;1.97;;;1.40;;
4577;SDS011;2301;47.354;8.528;2023-07-13T14:05:59;2.50;;;1.40;;
4577;SDS011;2301;47.354;8.528;2023-07-13T14:08:26;1.93;;;1.30;;
4577;SDS011;2301;47.354;8.528;2023-07-13T14:10:54;2.43;;;1.40;;
4577;SDS011;2301;47.354;8.528;2023-07-13T14:13:27;2.33;;;1.37;;
4577;SDS011;2301;47.354;8.528;2023-07-13T14:15:59;2.20;;;1.37;;
4577;SDS011;2301;47.354;8.528;2023-07-13T14:18:26;4.47;;;1.60;;
4577;SDS011;2301;47.354;8.528;2023-07-13T14:20:54;1.80;;;1.40;;
4577;SDS011;2301;47.354;8.528;2023-07-13T14:23:21;2.73;;;1.43;;
4577;SDS011;2301;47.354;8.528;2023-07-13T14:25:48;4.47;;;1.40;;
4577;SDS011;2301;47.354;8.528;2023-07-13T14:28:18;2.40;;;1.50;;
4577;SDS011;2301;47.354;8.528;2023-07-13T14:30:48;6.20;;;1.40;;
4577;SDS011;2301;47.354;8.528;2023-07-13T14:33:16;1.70;;;1.20;;
4577;SDS011;2301;47.354;8.528;2023-07-13T14:35:43;1.90;;;1.37;;
4577;SDS011;2301;47.354;8.528;2023-07-13T14:38:12;1.90;;;1.40;;
4577;SDS011;2301;47.354;8.528;2023-07-13T14:40:42;3.30;;;1.10;;
4577;SDS011;2301;47.354;8.528;2023-07-13T14:43:10;2.47;;;1.20;;
4577;SDS011;2301;47.354;8.528;2023-07-13T14:45:39;2.40;;;1.20;;
4577;SDS011;2301;47.354;8.528;2023-07-13T14:48:15;2.50;;;1.30;;
4577;SDS011;2301;47.354;8.528;2023-07-13T14:50:44;3.07;;;1.50;;
4577;SDS011;2301;47.354;8.528;2023-07-13T14:53:13;4.43;;;1.47;;
4577;SDS011;2301;47.354;8.528;2023-07-13T14:55:40;2.73;;;1.50;;
4577;SDS011;2301;47.354;8.528;2023-07-13T14:58:08;2.83;;;1.40;;
4577;SDS011;2301;47.354;8.528;2023-07-13T15:00:35;2.90;;;1.40;;
4577;SDS011;2301;47.354;8.528;2023-07-13T15:03:03;3.00;;;1.40;;
4577;SDS011;2301;47.354;8.528;2023-07-13T15:05:32;2.70;;;1.23;;
4577;SDS011;2301;47.354;8.528;2023-07-13T15:08:00;2.40;;;1.40;;
4577;SDS011;2301;47.354;8.528;2023-07-13T15:10:30;2.67;;;1.43;;
4577;SDS011;2301;47.354;8.528;2023-07-13T15:13:00;4.43;;;1.43;;
4577;SDS011;2301;47.354;8.528;2023-07-13T15:15:38;3.10;;;1.50;;
4577;SDS011;2301;47.354;8.528;2023-07-13T15:18:08;2.07;;;1.27;;
4577;SDS011;2301;47.354;8.528;2023-07-13T15:20:37;1.63;;;1.13;;
4577;SDS011;2301;47.354;8.528;2023-07-13T15:23:04;3.97;;;1.20;;
4577;SDS011;2301;47.354;8.528;2023-07-13T15:25:33;2.00;;;1.10;;
4577;SDS011;2301;47.354;8.528;2023-07-13T15:28:00;2.70;;;1.33;;
4577;SDS011;2301;47.354;8.528;2023-07-13T15:30:29;3.10;;;1.30;;
4577;SDS011;2301;47.354;8.528;2023-07-13T15:33:01;1.67;;;1.20;;